This is the latest recevied weather packets stored in our database for station/object MeshWX-1. If no packets are shown the sender has not sent any weather packets the latest 10 day(s).
| Time | Temp. | Humidity | Pressure | Rain* | Wind** | Luminosity | Snow |
|---|---|---|---|---|---|---|---|
| 1788084017 | 34.44° C | 33% | 999.5 hPa | - | - | - | - |
| 1788083953 | 34.44° C | 33% | 999.5 hPa | - | - | - | - |
| 1788083700 | 33.89° C | 36% | 999.9 hPa | - | - | - | - |
| 1788081829 | 33.89° C | 36% | 999.9 hPa | - | - | - | - |
| 1788081539 | 32.78° C | 40% | 1000.1 hPa | - | - | - | - |
| 1788079769 | 32.78° C | 40% | 1000.1 hPa | - | - | - | - |
| 1788079741 | 32.78° C | 40% | 1000.1 hPa | - | - | - | - |
| 1788079379 | 32.22° C | 43% | 1000.4 hPa | - | - | - | - |
| 1788077671 | 32.22° C | 43% | 1000.4 hPa | - | - | - | - |
| 1788077279 | 31.67° C | 46% | 1000.2 hPa | - | - | - | - |
| 1788075627 | 31.67° C | 56% | 1000.2 hPa | - | - | - | - |
| 1788075239 | 31.67° C | 56% | 1000.2 hPa | - | - | - | - |
| 1788073566 | 31.67° C | 56% | 1000.2 hPa | - | - | - | - |
| 1788073079 | 27.78° C | 62% | 1000.1 hPa | - | - | - | - |
| 1788071484 | 27.78° C | 62% | 1000.1 hPa | - | - | - | - |
| 1788071424 | 27.78° C | 62% | 1000.1 hPa | - | - | - | - |
| 1788070919 | 24.44° C | 72% | 1000 hPa | - | - | - | - |
| 1788069300 | 24.44° C | 72% | 1000 hPa | - | - | - | - |
| 1788068819 | 22.22° C | 86% | 1000.2 hPa | - | - | - | - |
| 1788067233 | 22.22° C | 86% | 1000.2 hPa | - | - | - | - |
| 1788067158 | 22.22° C | 86% | 1000.2 hPa | - | - | - | - |
| 1788066658 | 18.33° C | 93% | 1000.2 hPa | - | - | - | - |
| 1788065123 | 18.33° C | 93% | 1000.2 hPa | - | - | - | - |
| 1788064618 | 17.78° C | 94% | 1000.3 hPa | - | - | - | - |
| 1788063160 | 17.78° C | 94% | 1000.3 hPa | - | - | - | - |
* Rain since midnight (hover to see other rain measurements)
** Current wind speed in m/s (hover to see current wind gust speed)